Time;durP1;ratioP1;P1;durP2;ratioP2;P2;SDS_P1;SDS_P2;PMS_P1;PMS_P2;Temp;Humidity;BMP_temperature;BMP_pressure;BME280_temperature;BME280_humidity;BME280_pressure;Samples;Min_cycle;Max_cycle;Signal;HPM_P1;HPM_P2
2022/01/05 00:00:51;;;;;;;10.53;9.53;;;;;;;;;;4995290;28;20674;-84
2022/01/05 00:03:18;;;;;;;14.47;11.07;;;;;;;;;;4995137;28;20199;-84
2022/01/05 00:05:46;;;;;;;10.70;9.20;;;;;;;;;;4995517;28;20250;-85
2022/01/05 00:08:14;;;;;;;13.63;10.03;;;;;;;;;;4995340;28;20306;-84
2022/01/05 00:10:41;;;;;;;11.17;8.50;;;;;;;;;;4995149;28;20219;-85
2022/01/05 00:13:09;;;;;;;12.27;9.10;;;;;;;;;;4981176;28;20200;-85
2022/01/05 00:15:36;;;;;;;10.10;9.20;;;;;;;;;;4998276;28;20264;-85
2022/01/05 00:18:06;;;;;;;9.37;8.07;;;;;;;;;;5000501;28;20196;-84
2022/01/05 00:20:34;;;;;;;10.60;8.07;;;;;;;;;;5000951;28;20247;-85
2022/01/05 00:23:01;;;;;;;9.10;7.43;;;;;;;;;;4996862;28;20212;-84
2022/01/05 00:25:28;;;;;;;8.20;7.40;;;;;;;;;;4997292;28;20204;-84
2022/01/05 00:27:56;;;;;;;10.23;7.87;;;;;;;;;;4997216;28;20279;-85
2022/01/05 00:30:23;;;;;;;10.60;6.97;;;;;;;;;;4996842;28;20261;-84
2022/01/05 00:32:52;;;;;;;9.93;7.83;;;;;;;;;;4995327;28;20295;-84
2022/01/05 00:35:21;;;;;;;12.03;8.97;;;;;;;;;;4977061;28;20207;-84
2022/01/05 00:37:48;;;;;;;15.83;11.27;;;;;;;;;;4994953;28;20224;-84
2022/01/05 00:40:16;;;;;;;12.50;10.47;;;;;;;;;;4994523;28;20199;-83
2022/01/05 00:42:43;;;;;;;12.00;9.10;;;;;;;;;;4994700;28;20580;-84
2022/01/05 00:45:11;;;;;;;12.03;9.20;;;;;;;;;;4994610;28;20677;-84
2022/01/05 00:47:38;;;;;;;10.83;7.97;;;;;;;;;;4994553;28;20205;-84
2022/01/05 00:50:07;;;;;;;9.73;8.27;;;;;;;;;;4994916;28;20254;-84
2022/01/05 00:52:36;;;;;;;11.20;7.83;;;;;;;;;;4994732;28;20611;-84
2022/01/05 00:55:04;;;;;;;9.57;8.57;;;;;;;;;;4994623;28;20196;-84
2022/01/05 00:57:32;;;;;;;9.00;8.07;;;;;;;;;;4994050;28;20204;-84
2022/01/05 00:59:59;;;;;;;8.33;7.53;;;;;;;;;;4994205;28;20196;-84
2022/01/05 01:02:26;;;;;;;10.60;8.00;;;;;;;;;;4994135;28;20234;-84
2022/01/05 01:04:56;;;;;;;9.40;8.17;;;;;;;;;;4993122;28;20247;-84
2022/01/05 01:07:23;;;;;;;8.10;7.33;;;;;;;;;;4994005;28;20258;-84
2022/01/05 01:09:52;;;;;;;8.53;7.50;;;;;;;;;;4994214;28;20286;-84
2022/01/05 01:12:19;;;;;;;8.57;7.67;;;;;;;;;;4993816;28;20589;-84
2022/01/05 01:14:47;;;;;;;10.43;8.03;;;;;;;;;;4993952;28;20283;-84
2022/01/05 01:17:14;;;;;;;8.67;6.73;;;;;;;;;;4994006;28;20208;-84
2022/01/05 01:19:41;;;;;;;10.70;7.43;;;;;;;;;;4976426;28;20200;-84
2022/01/05 01:22:09;;;;;;;8.60;7.50;;;;;;;;;;4993686;28;20720;-84
2022/01/05 01:24:36;;;;;;;8.13;7.30;;;;;;;;;;4993932;28;20272;-84
2022/01/05 01:27:05;;;;;;;10.77;7.37;;;;;;;;;;4993222;28;20723;-83
2022/01/05 01:29:33;;;;;;;11.53;7.90;;;;;;;;;;4993780;28;20207;-84
2022/01/05 01:32:05;;;;;;;7.57;6.27;;;;;;;;;;4993647;28;20663;-84
2022/01/05 01:34:34;;;;;;;8.23;7.40;;;;;;;;;;4993509;28;20717;-83
2022/01/05 01:37:01;;;;;;;8.17;7.23;;;;;;;;;;4993643;28;20283;-84
2022/01/05 01:39:31;;;;;;;8.67;7.13;;;;;;;;;;4993586;28;20199;-84
2022/01/05 01:41:58;;;;;;;8.60;6.77;;;;;;;;;;4993306;28;20204;-84
2022/01/05 01:44:27;;;;;;;9.83;7.40;;;;;;;;;;4993459;28;20287;-84
2022/01/05 01:46:54;;;;;;;9.30;6.90;;;;;;;;;;4992826;28;20201;-84
2022/01/05 01:49:22;;;;;;;7.43;6.70;;;;;;;;;;4993518;28;20583;-84
2022/01/05 01:51:49;;;;;;;6.90;6.13;;;;;;;;;;4993596;28;20582;-84
2022/01/05 01:54:16;;;;;;;8.90;6.93;;;;;;;;;;4993100;28;20607;-84
2022/01/05 01:56:45;;;;;;;8.50;7.07;;;;;;;;;;4993400;28;20251;-84
2022/01/05 01:59:13;;;;;;;9.53;7.13;;;;;;;;;;4993048;28;20204;-84
2022/01/05 02:01:42;;;;;;;12.30;9.27;;;;;;;;;;4992614;28;20258;-83
2022/01/05 02:04:11;;;;;;;8.73;6.60;;;;;;;;;;4993228;28;20258;-84
2022/01/05 02:06:38;;;;;;;8.07;6.60;;;;;;;;;;4992790;28;20236;-84
2022/01/05 02:09:06;;;;;;;7.10;6.40;;;;;;;;;;4993058;28;20284;-84
2022/01/05 02:11:34;;;;;;;7.30;6.37;;;;;;;;;;4992866;28;20234;-84
2022/01/05 02:14:02;;;;;;;8.37;7.27;;;;;;;;;;4993101;28;20634;-85
2022/01/05 02:16:32;;;;;;;9.33;7.97;;;;;;;;;;4992834;28;20283;-84
2022/01/05 02:19:01;;;;;;;9.77;7.57;;;;;;;;;;4992614;28;20687;-84
2022/01/05 02:21:31;;;;;;;9.87;8.30;;;;;;;;;;4992797;28;20240;-84
2022/01/05 02:23:59;;;;;;;11.50;6.83;;;;;;;;;;4991941;28;20246;-84
2022/01/05 02:26:26;;;;;;;9.37;8.17;;;;;;;;;;4992802;28;20200;-84
2022/01/05 02:28:54;;;;;;;8.33;7.00;;;;;;;;;;4975281;28;20231;-83
2022/01/05 02:31:21;;;;;;;7.70;6.90;;;;;;;;;;4993211;28;20648;-84
2022/01/05 02:33:49;;;;;;;10.87;8.33;;;;;;;;;;4992035;28;20200;-84
2022/01/05 02:36:20;;;;;;;9.70;7.60;;;;;;;;;;4992908;28;20204;-84
2022/01/05 02:38:50;;;;;;;9.47;7.97;;;;;;;;;;4992601;28;20302;-84
2022/01/05 02:41:18;;;;;;;8.50;7.17;;;;;;;;;;4992791;28;20275;-83
2022/01/05 02:43:46;;;;;;;8.67;7.30;;;;;;;;;;4975192;28;20271;-84
2022/01/05 02:46:14;;;;;;;10.60;7.80;;;;;;;;;;4993043;28;20314;-84
2022/01/05 02:48:42;;;;;;;11.63;7.00;;;;;;;;;;4992382;28;20279;-84
2022/01/05 02:51:11;;;;;;;8.17;7.17;;;;;;;;;;4992284;28;20311;-84
2022/01/05 02:53:39;;;;;;;7.63;6.37;;;;;;;;;;4992509;28;20246;-84
2022/01/05 02:56:08;;;;;;;9.47;6.93;;;;;;;;;;4992584;28;20204;-84
2022/01/05 02:58:35;;;;;;;7.60;6.73;;;;;;;;;;4992369;28;20287;-84
2022/01/05 03:01:05;;;;;;;8.57;6.87;;;;;;;;;;4992440;28;20203;-84
2022/01/05 03:03:33;;;;;;;7.37;6.40;;;;;;;;;;4992728;28;20196;-84
2022/01/05 03:06:00;;;;;;;7.17;6.40;;;;;;;;;;4992210;28;20208;-84
2022/01/05 03:08:27;;;;;;;7.90;7.10;;;;;;;;;;4992370;28;20188;-84
2022/01/05 03:10:56;;;;;;;9.13;7.23;;;;;;;;;;4974842;28;20207;-84
2022/01/05 03:13:24;;;;;;;15.43;12.33;;;;;;;;;;4992345;28;20211;-84
2022/01/05 03:15:52;;;;;;;8.60;7.70;;;;;;;;;;4975068;28;20203;-83
2022/01/05 03:18:20;;;;;;;11.20;8.67;;;;;;;;;;4992170;28;20240;-84
2022/01/05 03:20:47;;;;;;;11.20;8.23;;;;;;;;;;4992285;28;20200;-84
2022/01/05 03:23:15;;;;;;;12.83;8.30;;;;;;;;;;4992106;28;20315;-84
2022/01/05 03:25:42;;;;;;;8.63;7.73;;;;;;;;;;4991905;28;20203;-85
2022/01/05 03:28:10;;;;;;;8.50;7.50;;;;;;;;;;4992596;28;20287;-84
2022/01/05 03:30:40;;;;;;;7.73;6.30;;;;;;;;;;4995717;28;20204;-84
2022/01/05 03:33:11;;;;;;;7.73;6.93;;;;;;;;;;4995872;28;20314;-84
2022/01/05 03:35:42;;;;;;;8.10;7.33;;;;;;;;;;4994578;28;20211;-83
2022/01/05 03:38:10;;;;;;;7.97;7.17;;;;;;;;;;4993935;28;20251;-83
2022/01/05 03:40:38;;;;;;;8.13;6.47;;;;;;;;;;4993978;28;20197;-83
2022/01/05 03:43:07;;;;;;;10.17;7.07;;;;;;;;;;4995195;28;20196;-83
2022/01/05 03:45:36;;;;;;;7.30;6.60;;;;;;;;;;4995932;28;20215;-83
2022/01/05 03:48:07;;;;;;;7.93;6.60;;;;;;;;;;4995564;28;20196;-83
2022/01/05 03:50:35;;;;;;;9.03;6.80;;;;;;;;;;4995785;28;20235;-83
2022/01/05 03:53:04;;;;;;;7.80;7.00;;;;;;;;;;4995505;28;20224;-83
2022/01/05 03:55:31;;;;;;;8.63;6.47;;;;;;;;;;4995341;28;20228;-83
2022/01/05 03:57:59;;;;;;;7.73;6.93;;;;;;;;;;4995217;28;20240;-83
2022/01/05 04:00:29;;;;;;;8.07;6.60;;;;;;;;;;4995318;28;20204;-84
2022/01/05 04:02:57;;;;;;;6.63;6.00;;;;;;;;;;4995124;28;20258;-83
2022/01/05 04:05:25;;;;;;;9.20;6.90;;;;;;;;;;4995292;28;20228;-84
2022/01/05 04:07:53;;;;;;;8.77;6.37;;;;;;;;;;4995088;28;20283;-83
2022/01/05 04:10:20;;;;;;;7.77;6.97;;;;;;;;;;4994819;28;20677;-86
2022/01/05 04:12:48;;;;;;;7.00;6.23;;;;;;;;;;5000538;28;20313;-84
2022/01/05 04:15:16;;;;;;;7.80;6.60;;;;;;;;;;5014543;28;20200;-84
2022/01/05 04:17:43;;;;;;;10.23;7.50;;;;;;;;;;5003859;28;20243;-83
2022/01/05 04:20:12;;;;;;;39.27;24.70;;;;;;;;;;4993194;28;20211;-84
2022/01/05 04:22:41;;;;;;;20.00;16.57;;;;;;;;;;4993443;28;20768;-83
2022/01/05 04:25:09;;;;;;;24.67;18.80;;;;;;;;;;4993290;28;20279;-82
2022/01/05 04:27:36;;;;;;;27.00;18.70;;;;;;;;;;4993554;28;20200;-82
2022/01/05 04:30:07;;;;;;;12.50;11.00;;;;;;;;;;4993587;28;20750;-85
2022/01/05 04:32:34;;;;;;;11.47;9.47;;;;;;;;;;4993332;28;20219;-82
2022/01/05 04:35:02;;;;;;;9.17;7.87;;;;;;;;;;4993626;28;20204;-83
2022/01/05 04:37:32;;;;;;;8.37;7.53;;;;;;;;;;4993567;28;20292;-84
2022/01/05 04:40:01;;;;;;;8.57;7.43;;;;;;;;;;4993442;28;20196;-83
2022/01/05 04:42:29;;;;;;;12.40;7.33;;;;;;;;;;4993319;28;20251;-83
2022/01/05 04:44:57;;;;;;;7.67;6.73;;;;;;;;;;4992838;28;20239;-82
2022/01/05 04:47:24;;;;;;;28.60;22.77;;;;;;;;;;4975661;28;20204;-84
2022/01/05 04:49:52;;;;;;;30.00;23.33;;;;;;;;;;4975947;28;20236;-84
2022/01/05 04:52:19;;;;;;;13.97;10.30;;;;;;;;;;4992895;28;20224;-82
2022/01/05 04:54:46;;;;;;;8.80;7.67;;;;;;;;;;4993371;28;20604;-82
2022/01/05 04:57:15;;;;;;;17.63;15.63;;;;;;;;;;4992996;28;20213;-82
2022/01/05 04:59:45;;;;;;;21.70;17.70;;;;;;;;;;4992650;28;20295;-82
2022/01/05 05:02:13;;;;;;;12.77;11.00;;;;;;;;;;4992931;28;20189;-82
2022/01/05 05:04:41;;;;;;;12.27;10.13;;;;;;;;;;4992968;28;20709;-82
2022/01/05 05:07:09;;;;;;;9.43;7.33;;;;;;;;;;4972137;28;20320;-82
2022/01/05 05:09:37;;;;;;;7.63;5.03;;;;;;;;;;4973573;28;20207;-82
2022/01/05 05:12:05;;;;;;;7.93;6.93;;;;;;;;;;4972888;28;20760;-82
2022/01/05 05:14:34;;;;;;;17.23;12.43;;;;;;;;;;4973233;28;20260;-82
2022/01/05 05:17:02;;;;;;;15.10;11.30;;;;;;;;;;4972822;28;20688;-82
2022/01/05 05:19:31;;;;;;;10.00;8.97;;;;;;;;;;4973390;28;20201;-83
2022/01/05 05:21:59;;;;;;;8.50;6.97;;;;;;;;;;4973131;28;20204;-82
2022/01/05 05:24:26;;;;;;;13.63;11.90;;;;;;;;;;4972863;28;20237;-82
2022/01/05 05:26:53;;;;;;;9.13;7.03;;;;;;;;;;4973006;28;20212;-82
2022/01/05 05:29:21;;;;;;;8.90;5.90;;;;;;;;;;4973064;28;20287;-83
2022/01/05 05:31:49;;;;;;;7.17;6.20;;;;;;;;;;4972922;28;20624;-82
2022/01/05 05:34:17;;;;;;;8.70;7.57;;;;;;;;;;4973119;28;20666;-82
2022/01/05 05:36:44;;;;;;;10.73;8.43;;;;;;;;;;4973153;28;20236;-82
2022/01/05 05:39:11;;;;;;;11.40;10.23;;;;;;;;;;4974272;28;20227;-82
2022/01/05 05:41:39;;;;;;;19.67;12.53;;;;;;;;;;4973849;28;20240;-82
2022/01/05 05:44:06;;;;;;;15.27;12.00;;;;;;;;;;4974269;28;20212;-82
2022/01/05 05:46:35;;;;;;;13.30;10.80;;;;;;;;;;4972429;28;20203;-82
2022/01/05 05:49:03;;;;;;;10.80;9.43;;;;;;;;;;4971452;28;20203;-82
2022/01/05 05:51:31;;;;;;;9.23;8.33;;;;;;;;;;4973281;28;20211;-82
2022/01/05 05:53:58;;;;;;;8.97;8.07;;;;;;;;;;4973697;28;20268;-82
2022/01/05 05:56:28;;;;;;;8.17;7.10;;;;;;;;;;4972542;28;20211;-82
2022/01/05 05:58:56;;;;;;;7.87;6.77;;;;;;;;;;4974171;28;20212;-83
2022/01/05 06:01:23;;;;;;;7.60;6.37;;;;;;;;;;4973716;28;20701;-82
2022/01/05 06:03:51;;;;;;;8.47;7.57;;;;;;;;;;4973634;28;20193;-82
2022/01/05 06:06:19;;;;;;;7.50;6.33;;;;;;;;;;4974504;28;20231;-84
2022/01/05 06:08:47;;;;;;;9.13;6.50;;;;;;;;;;4993147;28;20270;-84
2022/01/05 06:11:14;;;;;;;14.73;13.23;;;;;;;;;;4992563;28;20199;-83
2022/01/05 06:13:42;;;;;;;17.50;12.60;;;;;;;;;;4992806;28;20267;-83
2022/01/05 06:16:10;;;;;;;31.97;21.40;;;;;;;;;;4992537;28;20240;-83
2022/01/05 06:18:37;;;;;;;26.53;21.03;;;;;;;;;;4992898;28;20196;-84
2022/01/05 06:21:04;;;;;;;21.63;17.60;;;;;;;;;;4992397;28;20628;-83
2022/01/05 06:23:33;;;;;;;12.63;11.30;;;;;;;;;;4992708;28;20685;-84
2022/01/05 06:26:00;;;;;;;12.63;9.30;;;;;;;;;;4992784;28;20239;-83
2022/01/05 06:28:27;;;;;;;9.87;7.97;;;;;;;;;;4992644;28;20263;-83
2022/01/05 06:30:55;;;;;;;7.87;6.80;;;;;;;;;;4992728;28;20231;-83
2022/01/05 06:33:23;;;;;;;7.70;6.90;;;;;;;;;;4992487;28;20227;-83
2022/01/05 06:35:50;;;;;;;9.40;7.97;;;;;;;;;;4992890;28;20227;-83
2022/01/05 06:38:17;;;;;;;9.43;8.57;;;;;;;;;;4991965;28;20639;-84
2022/01/05 06:40:46;;;;;;;13.77;11.27;;;;;;;;;;4992518;28;20584;-84
2022/01/05 06:43:15;;;;;;;10.93;9.83;;;;;;;;;;4992466;28;20200;-84
2022/01/05 06:45:43;;;;;;;27.87;20.23;;;;;;;;;;4992545;28;20200;-83
2022/01/05 06:48:10;;;;;;;32.23;21.87;;;;;;;;;;4992711;28;20204;-83
2022/01/05 06:50:37;;;;;;;34.83;23.40;;;;;;;;;;4992618;28;20210;-83
2022/01/05 06:53:04;;;;;;;27.63;17.43;;;;;;;;;;4992441;28;20230;-83
2022/01/05 06:55:32;;;;;;;17.20;13.00;;;;;;;;;;4992093;28;20581;-83
2022/01/05 06:58:00;;;;;;;17.60;12.33;;;;;;;;;;4992514;28;20684;-84
2022/01/05 07:00:28;;;;;;;90.67;52.73;;;;;;;;;;4992271;28;20287;-83
2022/01/05 07:02:56;;;;;;;77.97;51.60;;;;;;;;;;4994253;28;20196;-83
2022/01/05 07:05:23;;;;;;;163.90;96.43;;;;;;;;;;4978788;28;20657;-83
2022/01/05 07:07:51;;;;;;;69.97;43.20;;;;;;;;;;4996009;28;20234;-83
2022/01/05 07:10:18;;;;;;;22.77;16.43;;;;;;;;;;4996274;28;20207;-83
2022/01/05 07:12:45;;;;;;;22.07;16.87;;;;;;;;;;4978683;28;20230;-83
2022/01/05 07:15:14;;;;;;;21.90;16.80;;;;;;;;;;4996106;28;20232;-83
2022/01/05 07:17:42;;;;;;;22.47;17.53;;;;;;;;;;4996189;28;20200;-83
2022/01/05 07:20:10;;;;;;;23.67;19.30;;;;;;;;;;4995881;28;20196;-83
2022/01/05 07:22:38;;;;;;;23.63;20.63;;;;;;;;;;4995839;28;20210;-83
2022/01/05 07:25:06;;;;;;;21.87;19.57;;;;;;;;;;4995828;28;20204;-83
2022/01/05 07:27:34;;;;;;;24.07;19.87;;;;;;;;;;4995523;28;20235;-83
2022/01/05 07:30:01;;;;;;;26.67;17.93;;;;;;;;;;4995951;28;20274;-83
2022/01/05 07:32:30;;;;;;;29.70;22.17;;;;;;;;;;4995650;28;20200;-82
2022/01/05 07:34:57;;;;;;;27.83;20.93;;;;;;;;;;4995624;28;20204;-82
2022/01/05 07:37:24;;;;;;;24.43;19.60;;;;;;;;;;4991369;28;20731;-81
2022/01/05 07:39:53;;;;;;;25.37;20.17;;;;;;;;;;4975210;28;20205;-82
2022/01/05 07:42:20;;;;;;;22.60;17.70;;;;;;;;;;4976311;28;20205;-82
2022/01/05 07:44:47;;;;;;;20.03;16.03;;;;;;;;;;4976207;28;20209;-82
2022/01/05 07:47:15;;;;;;;24.27;16.87;;;;;;;;;;4976090;28;20201;-82
2022/01/05 07:49:43;;;;;;;17.60;14.17;;;;;;;;;;4976015;28;20231;-82
2022/01/05 07:52:11;;;;;;;16.67;14.60;;;;;;;;;;4975883;28;20200;-81
2022/01/05 07:54:38;;;;;;;16.63;14.57;;;;;;;;;;4976055;28;20231;-81
2022/01/05 07:57:06;;;;;;;27.77;19.53;;;;;;;;;;4976312;28;20197;-82
2022/01/05 07:59:33;;;;;;;22.43;14.33;;;;;;;;;;4976046;28;20224;-82
2022/01/05 08:02:00;;;;;;;15.80;12.83;;;;;;;;;;4975604;28;20649;-83
2022/01/05 08:04:28;;;;;;;17.67;11.43;;;;;;;;;;4975737;28;20288;-82
2022/01/05 08:06:56;;;;;;;19.83;15.77;;;;;;;;;;4975061;28;20261;-82
2022/01/05 08:09:24;;;;;;;14.73;13.10;;;;;;;;;;4975644;28;20204;-82
2022/01/05 08:11:52;;;;;;;13.90;11.90;;;;;;;;;;4975546;28;20207;-82
2022/01/05 08:14:19;;;;;;;16.70;13.07;;;;;;;;;;4975216;28;20228;-82
2022/01/05 08:16:46;;;;;;;17.03;11.40;;;;;;;;;;4975531;28;20663;-82
2022/01/05 08:19:13;;;;;;;13.17;11.77;;;;;;;;;;4976137;28;20209;-81
2022/01/05 08:21:40;;;;;;;12.53;9.80;;;;;;;;;;4975346;28;20205;-82
2022/01/05 08:24:11;;;;;;;9.80;8.90;;;;;;;;;;4975326;28;20682;-82
2022/01/05 08:26:39;;;;;;;10.67;8.80;;;;;;;;;;4975406;28;20667;-82
2022/01/05 08:29:06;;;;;;;7.83;7.10;;;;;;;;;;4975323;28;20202;-81
2022/01/05 08:31:33;;;;;;;8.67;7.87;;;;;;;;;;4975518;28;20201;-81
2022/01/05 08:34:00;;;;;;;8.50;7.60;;;;;;;;;;4975474;28;20601;-82
2022/01/05 08:36:27;;;;;;;11.47;10.27;;;;;;;;;;4975062;28;20208;-82
2022/01/05 08:38:55;;;;;;;10.30;9.27;;;;;;;;;;4975487;28;20201;-81
2022/01/05 08:41:23;;;;;;;7.87;6.30;;;;;;;;;;4975285;28;20255;-83
2022/01/05 08:43:51;;;;;;;6.30;5.80;;;;;;;;;;4975215;28;20197;-83
2022/01/05 08:46:18;;;;;;;6.83;5.57;;;;;;;;;;4975400;28;20205;-82
2022/01/05 08:48:45;;;;;;;6.30;5.70;;;;;;;;;;4974885;28;20201;-82
2022/01/05 08:51:13;;;;;;;10.57;6.70;;;;;;;;;;4975373;28;20204;-83
2022/01/05 08:53:40;;;;;;;8.03;6.10;;;;;;;;;;4974856;28;20221;-83
2022/01/05 08:56:07;;;;;;;7.27;6.43;;;;;;;;;;4975117;28;20209;-83
2022/01/05 08:58:36;;;;;;;6.70;5.97;;;;;;;;;;4974908;28;20197;-82
2022/01/05 09:04:26;;;;;;;15.57;11.53;;;;;;;;;;4974684;28;20224;-82
2022/01/05 09:06:54;;;;;;;7.73;6.90;;;;;;;;;;4974403;28;20229;-84
2022/01/05 09:09:21;;;;;;;7.87;6.63;;;;;;;;;;4974729;28;20197;-83
2022/01/05 09:11:48;;;;;;;8.57;6.13;;;;;;;;;;4974850;28;20209;-84
2022/01/05 09:14:17;;;;;;;7.73;5.87;;;;;;;;;;4974438;28;20236;-84
2022/01/05 09:16:44;;;;;;;6.47;5.87;;;;;;;;;;4974768;28;20589;-84
2022/01/05 09:19:11;;;;;;;6.60;5.40;;;;;;;;;;4974968;28;20200;-83
2022/01/05 09:21:39;;;;;;;9.20;7.60;;;;;;;;;;4974734;28;20726;-83
2022/01/05 09:24:06;;;;;;;7.00;6.10;;;;;;;;;;4974750;28;20631;-83
2022/01/05 09:26:33;;;;;;;7.30;4.83;;;;;;;;;;4973690;28;20200;-84
2022/01/05 09:29:00;;;;;;;6.20;5.27;;;;;;;;;;4974672;28;20221;-84
2022/01/05 09:31:29;;;;;;;8.67;7.50;;;;;;;;;;4974265;28;20211;-83
2022/01/05 09:33:56;;;;;;;6.73;5.73;;;;;;;;;;4974372;28;20603;-84
2022/01/05 09:36:32;;;;;;;6.60;5.13;;;;;;;;;;4974326;28;20211;-83
2022/01/05 09:42:00;;;;;;;9.70;7.20;;;;;;;;;;4974207;28;20667;-84
2022/01/05 09:44:29;;;;;;;10.43;8.43;;;;;;;;;;4974207;28;20274;-84
2022/01/05 09:47:10;;;;;;;16.37;14.33;;;;;;;;;;4974018;28;20207;-83
2022/01/05 09:49:39;;;;;;;19.43;15.57;;;;;;;;;;4974051;28;20197;-83
2022/01/05 09:52:07;;;;;;;25.60;19.20;;;;;;;;;;4974250;28;20291;-83
2022/01/05 09:54:34;;;;;;;21.73;14.87;;;;;;;;;;4974135;28;20586;-83
2022/01/05 09:57:03;;;;;;;25.33;19.47;;;;;;;;;;4973766;28;20200;-83
2022/01/05 09:59:32;;;;;;;26.37;18.53;;;;;;;;;;4973968;28;20213;-82
2022/01/05 10:02:01;;;;;;;22.03;16.20;;;;;;;;;;4973942;28;20212;-83
2022/01/05 10:04:29;;;;;;;25.17;21.87;;;;;;;;;;4973509;28;20197;-83
2022/01/05 10:06:57;;;;;;;43.20;38.87;;;;;;;;;;4973702;28;20236;-83
2022/01/05 10:09:24;;;;;;;24.80;17.97;;;;;;;;;;4973672;28;20197;-83
2022/01/05 10:11:51;;;;;;;14.27;12.03;;;;;;;;;;4973733;28;20275;-84
2022/01/05 10:14:18;;;;;;;17.43;12.87;;;;;;;;;;4973913;28;20750;-83
2022/01/05 10:19:42;;;;;;;11.87;10.67;;;;;;;;;;5151733;27;21112;-82
2022/01/05 10:22:27;;;;;;;17.10;13.73;;;;;;;;;;5151258;27;20292;-82
2022/01/05 10:24:56;;;;;;;18.97;14.53;;;;;;;;;;5151208;27;20197;-81
2022/01/05 10:27:24;;;;;;;20.20;16.70;;;;;;;;;;5151378;27;20692;-82
2022/01/05 10:29:57;;;;;;;20.90;13.50;;;;;;;;;;5151318;27;20194;-82
2022/01/05 10:32:24;;;;;;;18.60;14.70;;;;;;;;;;5151076;27;20188;-82
2022/01/05 10:35:09;;;;;;;20.23;14.10;;;;;;;;;;5150864;27;20284;-82
2022/01/05 10:37:38;;;;;;;21.20;16.77;;;;;;;;;;5150881;27;20690;-82
2022/01/05 10:40:08;;;;;;;28.30;21.87;;;;;;;;;;5151256;27;20198;-82
2022/01/05 10:42:37;;;;;;;18.47;14.07;;;;;;;;;;5151333;27;20182;-82
2022/01/05 10:45:06;;;;;;;22.07;17.70;;;;;;;;;;5150967;27;20285;-82
2022/01/05 10:47:33;;;;;;;21.43;17.53;;;;;;;;;;5150766;27;20570;-83
2022/01/05 10:50:00;;;;;;;22.27;14.00;;;;;;;;;;5150727;27;20273;-83
2022/01/05 10:52:30;;;;;;;17.67;13.23;;;;;;;;;;5150813;27;20745;-83
2022/01/05 10:55:10;;;;;;;40.50;28.23;;;;;;;;;;5150406;27;20198;-83
2022/01/05 10:57:37;;;;;;;30.37;21.70;;;;;;;;;;5150390;27;20185;-83
2022/01/05 11:00:06;;;;;;;32.83;21.90;;;;;;;;;;5150500;27;20198;-83
2022/01/05 11:02:35;;;;;;;22.00;17.93;;;;;;;;;;5150709;27;20216;-83
2022/01/05 11:05:16;;;;;;;29.57;18.70;;;;;;;;;;5150290;27;20247;-84
2022/01/05 11:07:47;;;;;;;30.57;21.73;;;;;;;;;;5150419;27;20265;-84
2022/01/05 11:10:16;;;;;;;37.43;23.23;;;;;;;;;;5150582;27;20290;-85
2022/01/05 11:12:46;;;;;;;48.43;32.33;;;;;;;;;;5149984;27;20190;-84
2022/01/05 11:15:21;;;;;;;22.93;18.80;;;;;;;;;;5150019;27;20225;-83
2022/01/05 11:18:10;;;;;;;26.33;20.47;;;;;;;;;;5149951;27;20230;-83
2022/01/05 11:20:39;;;;;;;18.70;13.23;;;;;;;;;;5150047;27;20638;-82
2022/01/05 11:23:08;;;;;;;25.27;17.37;;;;;;;;;;5150023;27;20190;-83
2022/01/05 11:25:37;;;;;;;12.73;11.43;;;;;;;;;;5150041;27;20210;-83
2022/01/05 11:28:05;;;;;;;20.37;16.17;;;;;;;;;;5149877;27;20186;-82
2022/01/05 11:30:33;;;;;;;20.80;17.07;;;;;;;;;;5138963;27;20199;-82
2022/01/05 11:33:01;;;;;;;21.97;17.30;;;;;;;;;;5136084;27;20290;-82
2022/01/05 11:35:28;;;;;;;22.80;18.00;;;;;;;;;;5136393;27;20595;-82
2022/01/05 11:37:56;;;;;;;21.70;17.43;;;;;;;;;;5136087;27;20228;-82
2022/01/05 11:40:26;;;;;;;24.30;21.10;;;;;;;;;;5136209;27;20268;-82
2022/01/05 11:43:00;;;;;;;32.27;23.00;;;;;;;;;;5135842;27;20216;-82
2022/01/05 11:45:33;;;;;;;22.73;17.67;;;;;;;;;;5135842;27;20211;-82
2022/01/05 11:48:21;;;;;;;29.63;21.43;;;;;;;;;;5135685;27;20194;-82
2022/01/05 11:50:49;;;;;;;25.60;19.77;;;;;;;;;;5135733;27;20179;-82
2022/01/05 11:53:18;;;;;;;26.83;19.53;;;;;;;;;;5136096;27;20194;-82
2022/01/05 11:56:11;;;;;;;24.37;17.67;;;;;;;;;;5135561;27;20198;-82
2022/01/05 11:58:59;;;;;;;28.43;21.17;;;;;;;;;;5116033;27;20218;-82
2022/01/05 12:01:34;;;;;;;24.43;17.67;;;;;;;;;;5135420;27;20607;-82
2022/01/05 12:04:11;;;;;;;17.60;13.63;;;;;;;;;;5135735;27;20186;-83
2022/01/05 12:07:04;;;;;;;17.07;14.30;;;;;;;;;;5135322;27;20193;-83
2022/01/05 12:09:33;;;;;;;15.90;12.10;;;;;;;;;;5135294;27;20191;-82
2022/01/05 12:12:23;;;;;;;15.20;12.30;;;;;;;;;;5135291;27;20201;-82
2022/01/05 12:14:51;;;;;;;20.07;12.70;;;;;;;;;;5135514;27;20611;-82
2022/01/05 12:17:20;;;;;;;16.60;11.43;;;;;;;;;;5134874;27;20191;-82
2022/01/05 12:20:10;;;;;;;24.37;15.37;;;;;;;;;;5134949;27;20260;-82
2022/01/05 12:22:37;;;;;;;13.80;12.13;;;;;;;;;;5135192;27;20222;-82
2022/01/05 12:25:12;;;;;;;13.53;11.43;;;;;;;;;;5134911;27;20289;-82
2022/01/05 12:28:02;;;;;;;14.37;11.37;;;;;;;;;;5134984;27;20180;-82
2022/01/05 12:30:40;;;;;;;27.30;21.67;;;;;;;;;;5133009;27;20195;-84
2022/01/05 12:33:25;;;;;;;17.57;12.80;;;;;;;;;;5134770;27;20244;-85
2022/01/05 12:35:58;;;;;;;27.60;20.17;;;;;;;;;;5134449;27;20187;-85
2022/01/05 12:38:50;;;;;;;37.00;24.47;;;;;;;;;;5134793;27;20207;-85
2022/01/05 12:41:38;;;;;;;36.80;27.70;;;;;;;;;;5127877;27;20198;-85
2022/01/05 12:44:41;;;;;;;23.57;16.00;;;;;;;;;;5134423;27;20638;-85
2022/01/05 12:47:13;;;;;;;27.77;18.70;;;;;;;;;;5134924;27;20187;-86
2022/01/05 12:49:40;;;;;;;142.53;87.13;;;;;;;;;;5134282;27;20192;-84
2022/01/05 12:52:10;;;;;;;72.37;45.57;;;;;;;;;;5134391;27;20203;-86
2022/01/05 12:54:42;;;;;;;31.00;19.97;;;;;;;;;;5133928;27;20198;-86
2022/01/05 12:57:14;;;;;;;25.10;19.20;;;;;;;;;;5134620;27;20183;-86
2022/01/05 12:59:44;;;;;;;20.63;17.37;;;;;;;;;;5134197;27;20203;-85
2022/01/05 13:02:16;;;;;;;16.87;14.43;;;;;;;;;;5134251;27;20186;-86
2022/01/05 13:04:46;;;;;;;16.10;12.67;;;;;;;;;;5134274;27;20206;-86
2022/01/05 13:07:14;;;;;;;11.50;7.07;;;;;;;;;;5134548;27;20557;-86
2022/01/05 13:09:46;;;;;;;10.70;8.03;;;;;;;;;;5134212;27;20250;-84
2022/01/05 13:12:16;;;;;;;13.40;11.60;;;;;;;;;;5132794;27;20688;-85
2022/01/05 13:14:45;;;;;;;16.60;12.87;;;;;;;;;;5134245;27;20193;-86
2022/01/05 13:17:16;;;;;;;15.20;12.87;;;;;;;;;;5133818;27;20212;-86
2022/01/05 13:19:46;;;;;;;13.87;11.53;;;;;;;;;;5133831;27;20263;-85
2022/01/05 13:22:21;;;;;;;19.93;17.83;;;;;;;;;;5133889;27;20197;-85
2022/01/05 13:24:51;;;;;;;16.33;12.43;;;;;;;;;;5133786;27;20183;-84
2022/01/05 13:27:20;;;;;;;14.40;10.20;;;;;;;;;;5133764;27;20271;-84
2022/01/05 13:29:47;;;;;;;18.07;15.53;;;;;;;;;;5133597;27;20197;-84
2022/01/05 13:32:17;;;;;;;13.40;12.07;;;;;;;;;;5133946;27;20194;-84
2022/01/05 13:34:46;;;;;;;22.80;17.13;;;;;;;;;;5133622;27;20199;-84
2022/01/05 13:37:15;;;;;;;18.90;16.43;;;;;;;;;;5133561;27;20205;-85
2022/01/05 13:39:48;;;;;;;19.60;16.43;;;;;;;;;;5133659;27;20223;-84
2022/01/05 13:42:19;;;;;;;18.07;14.57;;;;;;;;;;5133502;27;20716;-84
2022/01/05 13:44:48;;;;;;;19.40;17.37;;;;;;;;;;5133447;27;20188;-85
2022/01/05 13:47:18;;;;;;;17.23;12.90;;;;;;;;;;5133636;27;20202;-84
2022/01/05 13:50:13;;;;;;;15.47;13.60;;;;;;;;;;5131733;27;20230;-83
2022/01/05 13:52:41;;;;;;;14.63;11.27;;;;;;;;;;5132037;27;20191;-83
2022/01/05 13:55:09;;;;;;;19.93;14.70;;;;;;;;;;5132874;27;20198;-85
2022/01/05 13:57:39;;;;;;;19.37;15.93;;;;;;;;;;5133606;27;20573;-84
2022/01/05 14:00:10;;;;;;;40.27;29.43;;;;;;;;;;5133001;27;20310;-82
2022/01/05 14:02:41;;;;;;;25.27;20.50;;;;;;;;;;5133149;27;20230;-82
2022/01/05 14:05:12;;;;;;;21.87;18.20;;;;;;;;;;5133200;27;20183;-82
2022/01/05 14:07:40;;;;;;;71.63;44.20;;;;;;;;;;5133065;27;20188;-82
2022/01/05 14:10:10;;;;;;;42.60;38.20;;;;;;;;;;5132989;27;20248;-81
2022/01/05 14:12:40;;;;;;;25.73;20.00;;;;;;;;;;5133514;27;20247;-82
2022/01/05 14:15:09;;;;;;;37.93;28.77;;;;;;;;;;5133026;27;20233;-82
2022/01/05 14:17:38;;;;;;;26.87;21.60;;;;;;;;;;5132735;28;20250;-82
2022/01/05 14:20:17;;;;;;;20.17;16.07;;;;;;;;;;5132911;28;20255;-82
2022/01/05 14:22:47;;;;;;;29.90;22.93;;;;;;;;;;5133157;28;20659;-83
2022/01/05 14:25:14;;;;;;;26.87;20.17;;;;;;;;;;5133262;28;20183;-83
2022/01/05 14:27:42;;;;;;;37.63;28.13;;;;;;;;;;5132748;28;20195;-83
2022/01/05 14:30:12;;;;;;;57.53;40.83;;;;;;;;;;5132889;28;20197;-86
2022/01/05 14:32:42;;;;;;;112.97;71.83;;;;;;;;;;5131456;28;20198;-84
2022/01/05 14:35:20;;;;;;;29.33;22.03;;;;;;;;;;5132890;28;20195;-84
2022/01/05 14:38:01;;;;;;;128.33;65.40;;;;;;;;;;5132920;28;20221;-84
2022/01/05 14:40:30;;;;;;;15.77;12.47;;;;;;;;;;5132867;28;20203;-83
2022/01/05 14:42:59;;;;;;;9.73;8.83;;;;;;;;;;5132986;28;20249;-83
2022/01/05 14:45:28;;;;;;;15.90;13.73;;;;;;;;;;5132728;27;20199;-84
2022/01/05 14:47:56;;;;;;;31.10;23.70;;;;;;;;;;5132671;28;20286;-84
2022/01/05 14:50:24;;;;;;;36.07;23.37;;;;;;;;;;5132949;28;20234;-82